sensor_id;sensor_type;location;lat;lon;timestamp;P1;durP1;ratioP1;P2;durP2;ratioP2
12296;SDS011;6211;49.124;9.152;2023-08-30T00:01:59;6.63;;;5.97;;
12296;SDS011;6211;49.124;9.152;2023-08-30T00:04:26;8.98;;;7.22;;
12296;SDS011;6211;49.124;9.152;2023-08-30T00:06:53;7.32;;;6.63;;
12296;SDS011;6211;49.124;9.152;2023-08-30T00:09:20;7.07;;;6.38;;
12296;SDS011;6211;49.124;9.152;2023-08-30T00:11:49;7.90;;;6.90;;
12296;SDS011;6211;49.124;9.152;2023-08-30T00:14:16;9.15;;;7.32;;
12296;SDS011;6211;49.124;9.152;2023-08-30T00:16:43;8.35;;;7.25;;
12296;SDS011;6211;49.124;9.152;2023-08-30T00:19:10;8.35;;;7.05;;
12296;SDS011;6211;49.124;9.152;2023-08-30T00:21:37;8.68;;;7.32;;
12296;SDS011;6211;49.124;9.152;2023-08-30T00:24:05;11.18;;;8.10;;
12296;SDS011;6211;49.124;9.152;2023-08-30T00:26:32;13.30;;;8.32;;
12296;SDS011;6211;49.124;9.152;2023-08-30T00:29:00;10.73;;;7.65;;
12296;SDS011;6211;49.124;9.152;2023-08-30T00:31:27;9.85;;;8.48;;
12296;SDS011;6211;49.124;9.152;2023-08-30T00:33:55;7.70;;;6.90;;
12296;SDS011;6211;49.124;9.152;2023-08-30T00:36:22;12.02;;;9.02;;
12296;SDS011;6211;49.124;9.152;2023-08-30T00:38:49;8.00;;;6.88;;
12296;SDS011;6211;49.124;9.152;2023-08-30T00:41:16;9.90;;;8.00;;
12296;SDS011;6211;49.124;9.152;2023-08-30T00:43:43;11.48;;;8.75;;
12296;SDS011;6211;49.124;9.152;2023-08-30T00:46:11;10.35;;;8.40;;
12296;SDS011;6211;49.124;9.152;2023-08-30T00:48:40;11.38;;;8.38;;
12296;SDS011;6211;49.124;9.152;2023-08-30T00:51:08;10.60;;;8.45;;
12296;SDS011;6211;49.124;9.152;2023-08-30T00:53:35;11.73;;;8.57;;
12296;SDS011;6211;49.124;9.152;2023-08-30T00:56:02;16.67;;;9.23;;
12296;SDS011;6211;49.124;9.152;2023-08-30T00:58:29;9.52;;;8.25;;
12296;SDS011;6211;49.124;9.152;2023-08-30T01:00:56;11.40;;;8.48;;
12296;SDS011;6211;49.124;9.152;2023-08-30T01:03:25;10.60;;;7.72;;
12296;SDS011;6211;49.124;9.152;2023-08-30T01:05:52;9.05;;;7.85;;
12296;SDS011;6211;49.124;9.152;2023-08-30T01:08:19;9.73;;;7.88;;
12296;SDS011;6211;49.124;9.152;2023-08-30T01:10:48;9.35;;;7.07;;
12296;SDS011;6211;49.124;9.152;2023-08-30T01:13:18;9.95;;;7.53;;
12296;SDS011;6211;49.124;9.152;2023-08-30T01:15:46;9.02;;;7.28;;
12296;SDS011;6211;49.124;9.152;2023-08-30T01:18:14;13.85;;;8.40;;
12296;SDS011;6211;49.124;9.152;2023-08-30T01:20:46;10.32;;;7.82;;
12296;SDS011;6211;49.124;9.152;2023-08-30T01:23:17;10.80;;;8.15;;
12296;SDS011;6211;49.124;9.152;2023-08-30T01:25:50;10.95;;;8.20;;
12296;SDS011;6211;49.124;9.152;2023-08-30T01:28:21;11.60;;;7.82;;
12296;SDS011;6211;49.124;9.152;2023-08-30T01:30:49;7.72;;;6.22;;
12296;SDS011;6211;49.124;9.152;2023-08-30T01:33:19;8.52;;;7.10;;
12296;SDS011;6211;49.124;9.152;2023-08-30T01:35:47;7.25;;;6.55;;
12296;SDS011;6211;49.124;9.152;2023-08-30T01:38:14;6.75;;;6.05;;
12296;SDS011;6211;49.124;9.152;2023-08-30T01:40:41;7.60;;;6.13;;
12296;SDS011;6211;49.124;9.152;2023-08-30T01:43:09;7.85;;;6.63;;
12296;SDS011;6211;49.124;9.152;2023-08-30T01:45:39;10.32;;;6.53;;
12296;SDS011;6211;49.124;9.152;2023-08-30T01:48:07;7.53;;;6.68;;
12296;SDS011;6211;49.124;9.152;2023-08-30T01:50:34;9.35;;;7.45;;
12296;SDS011;6211;49.124;9.152;2023-08-30T01:53:02;8.77;;;7.13;;
12296;SDS011;6211;49.124;9.152;2023-08-30T01:55:29;9.82;;;7.93;;
12296;SDS011;6211;49.124;9.152;2023-08-30T01:57:57;11.98;;;8.70;;
12296;SDS011;6211;49.124;9.152;2023-08-30T02:00:24;8.43;;;6.97;;
12296;SDS011;6211;49.124;9.152;2023-08-30T02:02:52;11.73;;;8.32;;
12296;SDS011;6211;49.124;9.152;2023-08-30T02:05:19;11.23;;;7.80;;
12296;SDS011;6211;49.124;9.152;2023-08-30T02:07:48;11.02;;;8.73;;
12296;SDS011;6211;49.124;9.152;2023-08-30T02:10:21;11.45;;;8.73;;
12296;SDS011;6211;49.124;9.152;2023-08-30T02:12:49;11.00;;;8.20;;
12296;SDS011;6211;49.124;9.152;2023-08-30T02:15:19;11.60;;;8.77;;
12296;SDS011;6211;49.124;9.152;2023-08-30T02:17:46;10.93;;;7.63;;
12296;SDS011;6211;49.124;9.152;2023-08-30T02:20:16;14.60;;;9.60;;
12296;SDS011;6211;49.124;9.152;2023-08-30T02:22:43;11.88;;;8.80;;
12296;SDS011;6211;49.124;9.152;2023-08-30T02:25:10;13.13;;;8.90;;
12296;SDS011;6211;49.124;9.152;2023-08-30T02:27:37;12.35;;;9.07;;
12296;SDS011;6211;49.124;9.152;2023-08-30T02:30:05;14.30;;;8.88;;
12296;SDS011;6211;49.124;9.152;2023-08-30T02:32:32;11.73;;;8.88;;
12296;SDS011;6211;49.124;9.152;2023-08-30T02:34:59;10.18;;;8.05;;
12296;SDS011;6211;49.124;9.152;2023-08-30T02:37:28;9.85;;;7.75;;
12296;SDS011;6211;49.124;9.152;2023-08-30T02:39:55;12.93;;;9.10;;
12296;SDS011;6211;49.124;9.152;2023-08-30T02:42:22;10.25;;;8.55;;
12296;SDS011;6211;49.124;9.152;2023-08-30T02:44:49;10.88;;;8.27;;
12296;SDS011;6211;49.124;9.152;2023-08-30T02:47:16;11.77;;;9.02;;
12296;SDS011;6211;49.124;9.152;2023-08-30T02:49:43;10.43;;;8.50;;
12296;SDS011;6211;49.124;9.152;2023-08-30T02:52:11;13.07;;;9.55;;
12296;SDS011;6211;49.124;9.152;2023-08-30T02:54:39;11.80;;;9.20;;
12296;SDS011;6211;49.124;9.152;2023-08-30T02:57:06;13.10;;;9.85;;
12296;SDS011;6211;49.124;9.152;2023-08-30T02:59:33;14.65;;;9.45;;
12296;SDS011;6211;49.124;9.152;2023-08-30T03:02:00;13.05;;;10.55;;
12296;SDS011;6211;49.124;9.152;2023-08-30T03:04:27;11.13;;;9.10;;
12296;SDS011;6211;49.124;9.152;2023-08-30T03:06:54;12.77;;;9.85;;
12296;SDS011;6211;49.124;9.152;2023-08-30T03:09:22;15.02;;;10.43;;
12296;SDS011;6211;49.124;9.152;2023-08-30T03:11:50;13.43;;;9.30;;
12296;SDS011;6211;49.124;9.152;2023-08-30T03:14:17;12.90;;;9.93;;
12296;SDS011;6211;49.124;9.152;2023-08-30T03:16:44;15.35;;;10.90;;
12296;SDS011;6211;49.124;9.152;2023-08-30T03:19:12;12.77;;;9.23;;
12296;SDS011;6211;49.124;9.152;2023-08-30T03:21:42;13.80;;;10.05;;
12296;SDS011;6211;49.124;9.152;2023-08-30T03:24:09;15.05;;;10.98;;
12296;SDS011;6211;49.124;9.152;2023-08-30T03:26:36;14.73;;;10.57;;
12296;SDS011;6211;49.124;9.152;2023-08-30T03:29:04;14.57;;;9.98;;
12296;SDS011;6211;49.124;9.152;2023-08-30T03:31:31;13.55;;;9.85;;
12296;SDS011;6211;49.124;9.152;2023-08-30T03:33:58;14.38;;;10.15;;
12296;SDS011;6211;49.124;9.152;2023-08-30T03:36:25;14.50;;;10.52;;
12296;SDS011;6211;49.124;9.152;2023-08-30T03:38:53;17.30;;;10.45;;
12296;SDS011;6211;49.124;9.152;2023-08-30T03:41:20;14.73;;;11.00;;
12296;SDS011;6211;49.124;9.152;2023-08-30T03:43:47;13.80;;;10.63;;
12296;SDS011;6211;49.124;9.152;2023-08-30T03:46:15;16.83;;;10.80;;
12296;SDS011;6211;49.124;9.152;2023-08-30T03:48:42;14.52;;;10.07;;
12296;SDS011;6211;49.124;9.152;2023-08-30T03:51:09;13.27;;;9.90;;
12296;SDS011;6211;49.124;9.152;2023-08-30T03:53:37;14.73;;;10.35;;
12296;SDS011;6211;49.124;9.152;2023-08-30T03:56:04;15.20;;;10.32;;
12296;SDS011;6211;49.124;9.152;2023-08-30T03:58:31;15.15;;;11.15;;
12296;SDS011;6211;49.124;9.152;2023-08-30T04:00:58;15.48;;;11.52;;
12296;SDS011;6211;49.124;9.152;2023-08-30T04:03:26;15.07;;;10.38;;
12296;SDS011;6211;49.124;9.152;2023-08-30T04:05:54;19.13;;;10.40;;
12296;SDS011;6211;49.124;9.152;2023-08-30T04:08:22;14.77;;;10.93;;
12296;SDS011;6211;49.124;9.152;2023-08-30T04:10:51;16.35;;;10.65;;
12296;SDS011;6211;49.124;9.152;2023-08-30T04:13:18;14.75;;;10.75;;
12296;SDS011;6211;49.124;9.152;2023-08-30T04:15:45;19.20;;;10.98;;
12296;SDS011;6211;49.124;9.152;2023-08-30T04:18:12;16.92;;;10.57;;
12296;SDS011;6211;49.124;9.152;2023-08-30T04:20:44;13.45;;;10.15;;
12296;SDS011;6211;49.124;9.152;2023-08-30T04:23:11;15.48;;;10.80;;
12296;SDS011;6211;49.124;9.152;2023-08-30T04:25:38;15.25;;;10.40;;
12296;SDS011;6211;49.124;9.152;2023-08-30T04:28:05;16.67;;;10.48;;
12296;SDS011;6211;49.124;9.152;2023-08-30T04:30:35;20.55;;;10.98;;
12296;SDS011;6211;49.124;9.152;2023-08-30T04:33:02;13.73;;;9.88;;
12296;SDS011;6211;49.124;9.152;2023-08-30T04:35:29;13.73;;;10.52;;
12296;SDS011;6211;49.124;9.152;2023-08-30T04:37:59;12.32;;;9.48;;
12296;SDS011;6211;49.124;9.152;2023-08-30T04:40:26;14.55;;;10.43;;
12296;SDS011;6211;49.124;9.152;2023-08-30T04:42:53;13.30;;;10.70;;
12296;SDS011;6211;49.124;9.152;2023-08-30T04:45:20;14.38;;;10.63;;
12296;SDS011;6211;49.124;9.152;2023-08-30T04:47:47;13.70;;;9.95;;
12296;SDS011;6211;49.124;9.152;2023-08-30T04:50:15;14.25;;;10.57;;
12296;SDS011;6211;49.124;9.152;2023-08-30T04:52:42;15.95;;;10.93;;
12296;SDS011;6211;49.124;9.152;2023-08-30T04:55:11;15.68;;;10.35;;
12296;SDS011;6211;49.124;9.152;2023-08-30T04:57:38;13.45;;;10.02;;
12296;SDS011;6211;49.124;9.152;2023-08-30T05:00:10;12.65;;;9.98;;
12296;SDS011;6211;49.124;9.152;2023-08-30T05:02:37;15.10;;;10.30;;
12296;SDS011;6211;49.124;9.152;2023-08-30T05:05:04;14.93;;;11.02;;
12296;SDS011;6211;49.124;9.152;2023-08-30T05:07:32;15.23;;;10.30;;
12296;SDS011;6211;49.124;9.152;2023-08-30T05:09:59;14.82;;;10.75;;
12296;SDS011;6211;49.124;9.152;2023-08-30T05:12:27;16.52;;;10.88;;
12296;SDS011;6211;49.124;9.152;2023-08-30T05:14:54;16.05;;;10.38;;
12296;SDS011;6211;49.124;9.152;2023-08-30T05:17:22;16.15;;;11.30;;
12296;SDS011;6211;49.124;9.152;2023-08-30T05:19:49;17.50;;;11.05;;
12296;SDS011;6211;49.124;9.152;2023-08-30T05:22:16;13.30;;;10.32;;
12296;SDS011;6211;49.124;9.152;2023-08-30T05:24:43;17.75;;;11.23;;
12296;SDS011;6211;49.124;9.152;2023-08-30T05:27:10;14.27;;;10.77;;
12296;SDS011;6211;49.124;9.152;2023-08-30T05:29:39;16.10;;;10.95;;
12296;SDS011;6211;49.124;9.152;2023-08-30T05:32:06;18.70;;;10.77;;
12296;SDS011;6211;49.124;9.152;2023-08-30T05:34:33;15.95;;;10.95;;
12296;SDS011;6211;49.124;9.152;2023-08-30T05:37:00;15.95;;;10.90;;
12296;SDS011;6211;49.124;9.152;2023-08-30T05:39:27;17.00;;;11.38;;
12296;SDS011;6211;49.124;9.152;2023-08-30T05:41:54;15.18;;;11.38;;
12296;SDS011;6211;49.124;9.152;2023-08-30T05:44:22;15.70;;;11.45;;
12296;SDS011;6211;49.124;9.152;2023-08-30T05:46:50;13.07;;;9.75;;
12296;SDS011;6211;49.124;9.152;2023-08-30T05:49:17;13.75;;;10.63;;
12296;SDS011;6211;49.124;9.152;2023-08-30T05:51:44;12.45;;;10.07;;
12296;SDS011;6211;49.124;9.152;2023-08-30T05:54:12;14.23;;;10.00;;
12296;SDS011;6211;49.124;9.152;2023-08-30T05:56:39;14.10;;;9.52;;
12296;SDS011;6211;49.124;9.152;2023-08-30T05:59:07;15.55;;;10.38;;
12296;SDS011;6211;49.124;9.152;2023-08-30T06:01:34;13.90;;;10.82;;
12296;SDS011;6211;49.124;9.152;2023-08-30T06:04:02;17.58;;;11.23;;
12296;SDS011;6211;49.124;9.152;2023-08-30T06:06:30;15.85;;;11.57;;
12296;SDS011;6211;49.124;9.152;2023-08-30T06:08:57;17.38;;;11.15;;
12296;SDS011;6211;49.124;9.152;2023-08-30T06:11:25;15.32;;;11.02;;
12296;SDS011;6211;49.124;9.152;2023-08-30T06:13:52;19.17;;;12.18;;
12296;SDS011;6211;49.124;9.152;2023-08-30T06:16:20;16.55;;;11.45;;
12296;SDS011;6211;49.124;9.152;2023-08-30T06:18:47;15.00;;;11.20;;
12296;SDS011;6211;49.124;9.152;2023-08-30T06:21:15;15.52;;;10.82;;
12296;SDS011;6211;49.124;9.152;2023-08-30T06:23:42;11.90;;;10.10;;
12296;SDS011;6211;49.124;9.152;2023-08-30T06:26:09;12.55;;;10.27;;
12296;SDS011;6211;49.124;9.152;2023-08-30T06:28:37;14.60;;;10.35;;
12296;SDS011;6211;49.124;9.152;2023-08-30T06:31:04;11.43;;;9.25;;
12296;SDS011;6211;49.124;9.152;2023-08-30T06:33:31;10.25;;;8.55;;
12296;SDS011;6211;49.124;9.152;2023-08-30T06:35:58;10.07;;;8.95;;
12296;SDS011;6211;49.124;9.152;2023-08-30T06:38:26;10.13;;;8.82;;
12296;SDS011;6211;49.124;9.152;2023-08-30T06:40:53;9.40;;;7.90;;
12296;SDS011;6211;49.124;9.152;2023-08-30T06:43:21;9.85;;;8.00;;
12296;SDS011;6211;49.124;9.152;2023-08-30T06:45:48;8.70;;;7.80;;
12296;SDS011;6211;49.124;9.152;2023-08-30T06:48:15;8.63;;;7.30;;
12296;SDS011;6211;49.124;9.152;2023-08-30T06:50:42;8.38;;;7.47;;
12296;SDS011;6211;49.124;9.152;2023-08-30T06:53:09;10.63;;;7.30;;
12296;SDS011;6211;49.124;9.152;2023-08-30T06:55:37;9.07;;;7.07;;
12296;SDS011;6211;49.124;9.152;2023-08-30T06:58:05;7.82;;;7.05;;
12296;SDS011;6211;49.124;9.152;2023-08-30T07:00:32;7.38;;;6.57;;
12296;SDS011;6211;49.124;9.152;2023-08-30T07:02:59;6.90;;;6.30;;
12296;SDS011;6211;49.124;9.152;2023-08-30T07:05:26;6.80;;;6.10;;
12296;SDS011;6211;49.124;9.152;2023-08-30T07:07:53;6.88;;;6.18;;
12296;SDS011;6211;49.124;9.152;2023-08-30T07:10:20;6.28;;;5.63;;
12296;SDS011;6211;49.124;9.152;2023-08-30T07:12:49;6.65;;;5.95;;
12296;SDS011;6211;49.124;9.152;2023-08-30T07:15:16;7.47;;;5.70;;
12296;SDS011;6211;49.124;9.152;2023-08-30T07:17:43;6.50;;;5.80;;
12296;SDS011;6211;49.124;9.152;2023-08-30T07:20:11;5.78;;;5.15;;
12296;SDS011;6211;49.124;9.152;2023-08-30T07:22:38;5.57;;;5.07;;
12296;SDS011;6211;49.124;9.152;2023-08-30T07:25:06;5.38;;;4.88;;
12296;SDS011;6211;49.124;9.152;2023-08-30T07:27:33;5.32;;;4.82;;
12296;SDS011;6211;49.124;9.152;2023-08-30T07:30:02;5.75;;;5.03;;
12296;SDS011;6211;49.124;9.152;2023-08-30T07:32:29;5.82;;;5.22;;
12296;SDS011;6211;49.124;9.152;2023-08-30T07:34:56;5.20;;;4.70;;
12296;SDS011;6211;49.124;9.152;2023-08-30T07:37:24;5.60;;;5.07;;
12296;SDS011;6211;49.124;9.152;2023-08-30T07:39:52;5.60;;;3.92;;
12296;SDS011;6211;49.124;9.152;2023-08-30T07:42:19;4.68;;;4.28;;
12296;SDS011;6211;49.124;9.152;2023-08-30T07:44:47;4.60;;;4.10;;
12296;SDS011;6211;49.124;9.152;2023-08-30T07:47:15;4.28;;;3.88;;
12296;SDS011;6211;49.124;9.152;2023-08-30T07:49:42;5.10;;;4.20;;
12296;SDS011;6211;49.124;9.152;2023-08-30T07:52:09;5.32;;;4.53;;
12296;SDS011;6211;49.124;9.152;2023-08-30T07:54:39;4.60;;;4.10;;
12296;SDS011;6211;49.124;9.152;2023-08-30T07:57:07;5.25;;;3.88;;
12296;SDS011;6211;49.124;9.152;2023-08-30T07:59:34;4.78;;;4.10;;
12296;SDS011;6211;49.124;9.152;2023-08-30T08:02:01;4.47;;;4.07;;
12296;SDS011;6211;49.124;9.152;2023-08-30T08:04:30;4.35;;;3.95;;
12296;SDS011;6211;49.124;9.152;2023-08-30T08:06:57;5.13;;;4.43;;
12296;SDS011;6211;49.124;9.152;2023-08-30T08:09:24;4.38;;;3.97;;
12296;SDS011;6211;49.124;9.152;2023-08-30T08:11:51;4.65;;;4.25;;
12296;SDS011;6211;49.124;9.152;2023-08-30T08:14:18;5.10;;;4.03;;
12296;SDS011;6211;49.124;9.152;2023-08-30T08:16:46;4.00;;;3.60;;
12296;SDS011;6211;49.124;9.152;2023-08-30T08:19:13;4.18;;;3.70;;
12296;SDS011;6211;49.124;9.152;2023-08-30T08:21:41;4.35;;;3.95;;
12296;SDS011;6211;49.124;9.152;2023-08-30T08:24:08;4.57;;;3.53;;
12296;SDS011;6211;49.124;9.152;2023-08-30T08:26:35;4.38;;;3.90;;
12296;SDS011;6211;49.124;9.152;2023-08-30T08:29:02;4.93;;;4.20;;
12296;SDS011;6211;49.124;9.152;2023-08-30T08:31:29;3.90;;;3.50;;
12296;SDS011;6211;49.124;9.152;2023-08-30T08:34:07;4.22;;;3.83;;
12296;SDS011;6211;49.124;9.152;2023-08-30T08:36:36;3.97;;;3.60;;
12296;SDS011;6211;49.124;9.152;2023-08-30T08:39:04;4.10;;;3.70;;
12296;SDS011;6211;49.124;9.152;2023-08-30T08:41:34;4.22;;;3.92;;
12296;SDS011;6211;49.124;9.152;2023-08-30T08:44:02;4.28;;;3.70;;
12296;SDS011;6211;49.124;9.152;2023-08-30T08:46:30;4.13;;;3.80;;
12296;SDS011;6211;49.124;9.152;2023-08-30T08:48:58;6.93;;;3.22;;
12296;SDS011;6211;49.124;9.152;2023-08-30T08:51:25;3.60;;;3.30;;
12296;SDS011;6211;49.124;9.152;2023-08-30T08:53:52;3.55;;;3.25;;
12296;SDS011;6211;49.124;9.152;2023-08-30T08:56:23;3.42;;;3.13;;
12296;SDS011;6211;49.124;9.152;2023-08-30T08:58:50;3.60;;;3.30;;
12296;SDS011;6211;49.124;9.152;2023-08-30T09:01:17;4.00;;;3.70;;
12296;SDS011;6211;49.124;9.152;2023-08-30T09:03:45;3.85;;;3.55;;
12296;SDS011;6211;49.124;9.152;2023-08-30T09:06:13;3.50;;;3.20;;
12296;SDS011;6211;49.124;9.152;2023-08-30T09:08:40;4.07;;;3.50;;
12296;SDS011;6211;49.124;9.152;2023-08-30T09:11:07;3.83;;;3.53;;
12296;SDS011;6211;49.124;9.152;2023-08-30T09:13:35;4.05;;;3.17;;
12296;SDS011;6211;49.124;9.152;2023-08-30T09:16:10;3.60;;;3.30;;
12296;SDS011;6211;49.124;9.152;2023-08-30T09:18:37;3.72;;;3.33;;
12296;SDS011;6211;49.124;9.152;2023-08-30T09:21:05;3.83;;;3.47;;
12296;SDS011;6211;49.124;9.152;2023-08-30T09:23:32;4.72;;;2.90;;
12296;SDS011;6211;49.124;9.152;2023-08-30T09:25:59;3.17;;;2.88;;
12296;SDS011;6211;49.124;9.152;2023-08-30T09:28:27;3.30;;;3.00;;
12296;SDS011;6211;49.124;9.152;2023-08-30T09:30:57;3.10;;;2.80;;
12296;SDS011;6211;49.124;9.152;2023-08-30T09:33:29;3.67;;;3.10;;
12296;SDS011;6211;49.124;9.152;2023-08-30T09:35:57;3.15;;;2.70;;
12296;SDS011;6211;49.124;9.152;2023-08-30T09:38:24;2.55;;;2.35;;
12296;SDS011;6211;49.124;9.152;2023-08-30T09:40:51;3.22;;;2.92;;
12296;SDS011;6211;49.124;9.152;2023-08-30T09:43:18;4.07;;;2.72;;
12296;SDS011;6211;49.124;9.152;2023-08-30T09:45:48;2.70;;;2.40;;
12296;SDS011;6211;49.124;9.152;2023-08-30T09:48:18;2.60;;;2.40;;
12296;SDS011;6211;49.124;9.152;2023-08-30T09:50:47;3.42;;;2.30;;
12296;SDS011;6211;49.124;9.152;2023-08-30T09:53:20;2.25;;;2.15;;
12296;SDS011;6211;49.124;9.152;2023-08-30T09:55:48;2.45;;;2.25;;
12296;SDS011;6211;49.124;9.152;2023-08-30T09:58:15;2.70;;;2.50;;
12296;SDS011;6211;49.124;9.152;2023-08-30T10:00:42;2.70;;;2.50;;
12296;SDS011;6211;49.124;9.152;2023-08-30T10:03:10;2.40;;;2.20;;
12296;SDS011;6211;49.124;9.152;2023-08-30T10:05:39;4.25;;;2.67;;
12296;SDS011;6211;49.124;9.152;2023-08-30T10:08:07;4.50;;;2.40;;
12296;SDS011;6211;49.124;9.152;2023-08-30T10:10:35;2.97;;;2.67;;
12296;SDS011;6211;49.124;9.152;2023-08-30T10:13:03;2.45;;;1.98;;
12296;SDS011;6211;49.124;9.152;2023-08-30T10:15:31;2.10;;;2.00;;
12296;SDS011;6211;49.124;9.152;2023-08-30T10:18:00;3.15;;;2.05;;
12296;SDS011;6211;49.124;9.152;2023-08-30T10:20:28;3.35;;;2.10;;
12296;SDS011;6211;49.124;9.152;2023-08-30T10:22:57;1.95;;;1.85;;
12296;SDS011;6211;49.124;9.152;2023-08-30T10:25:26;2.58;;;2.38;;
12296;SDS011;6211;49.124;9.152;2023-08-30T10:27:54;2.80;;;2.45;;
12296;SDS011;6211;49.124;9.152;2023-08-30T10:30:22;2.42;;;2.22;;
12296;SDS011;6211;49.124;9.152;2023-08-30T10:32:49;2.20;;;2.00;;
12296;SDS011;6211;49.124;9.152;2023-08-30T10:35:17;2.50;;;2.28;;
12296;SDS011;6211;49.124;9.152;2023-08-30T10:37:53;1.85;;;1.75;;
12296;SDS011;6211;49.124;9.152;2023-08-30T10:40:22;2.45;;;2.30;;
12296;SDS011;6211;49.124;9.152;2023-08-30T10:42:58;2.45;;;2.25;;
12296;SDS011;6211;49.124;9.152;2023-08-30T10:45:26;2.10;;;1.98;;
12296;SDS011;6211;49.124;9.152;2023-08-30T10:47:54;1.95;;;1.83;;
12296;SDS011;6211;49.124;9.152;2023-08-30T10:50:27;1.85;;;1.75;;
12296;SDS011;6211;49.124;9.152;2023-08-30T10:52:54;2.22;;;1.98;;
12296;SDS011;6211;49.124;9.152;2023-08-30T10:55:23;2.17;;;1.98;;
12296;SDS011;6211;49.124;9.152;2023-08-30T10:57:57;4.07;;;2.38;;
12296;SDS011;6211;49.124;9.152;2023-08-30T11:00:25;2.55;;;2.00;;
12296;SDS011;6211;49.124;9.152;2023-08-30T11:02:52;2.65;;;1.90;;
12296;SDS011;6211;49.124;9.152;2023-08-30T11:05:20;3.90;;;2.13;;
12296;SDS011;6211;49.124;9.152;2023-08-30T11:07:48;2.35;;;2.15;;
12296;SDS011;6211;49.124;9.152;2023-08-30T11:10:16;2.13;;;1.92;;
12296;SDS011;6211;49.124;9.152;2023-08-30T11:12:44;1.80;;;1.70;;
12296;SDS011;6211;49.124;9.152;2023-08-30T11:15:13;1.75;;;1.50;;
12296;SDS011;6211;49.124;9.152;2023-08-30T11:17:41;2.50;;;2.30;;
12296;SDS011;6211;49.124;9.152;2023-08-30T11:20:08;9.23;;;4.40;;
12296;SDS011;6211;49.124;9.152;2023-08-30T11:22:36;1.73;;;1.63;;
12296;SDS011;6211;49.124;9.152;2023-08-30T11:25:04;2.78;;;1.80;;
12296;SDS011;6211;49.124;9.152;2023-08-30T11:27:31;2.53;;;2.13;;
12296;SDS011;6211;49.124;9.152;2023-08-30T11:30:00;2.20;;;2.00;;
12296;SDS011;6211;49.124;9.152;2023-08-30T11:32:31;2.03;;;1.83;;
12296;SDS011;6211;49.124;9.152;2023-08-30T11:34:59;1.50;;;1.40;;
12296;SDS011;6211;49.124;9.152;2023-08-30T11:37:26;2.53;;;1.52;;
12296;SDS011;6211;49.124;9.152;2023-08-30T11:39:53;1.50;;;1.40;;
12296;SDS011;6211;49.124;9.152;2023-08-30T11:42:21;1.55;;;1.45;;
12296;SDS011;6211;49.124;9.152;2023-08-30T11:44:49;1.65;;;1.55;;
12296;SDS011;6211;49.124;9.152;2023-08-30T11:47:20;1.55;;;1.40;;
12296;SDS011;6211;49.124;9.152;2023-08-30T11:49:49;1.70;;;1.60;;
12296;SDS011;6211;49.124;9.152;2023-08-30T11:52:16;1.65;;;1.45;;
12296;SDS011;6211;49.124;9.152;2023-08-30T11:54:45;1.40;;;1.35;;
12296;SDS011;6211;49.124;9.152;2023-08-30T11:57:13;1.92;;;1.48;;
12296;SDS011;6211;49.124;9.152;2023-08-30T11:59:40;1.63;;;1.50;;
12296;SDS011;6211;49.124;9.152;2023-08-30T12:02:07;1.45;;;1.30;;
12296;SDS011;6211;49.124;9.152;2023-08-30T12:04:40;1.45;;;1.35;;
12296;SDS011;6211;49.124;9.152;2023-08-30T12:07:07;1.40;;;1.30;;
12296;SDS011;6211;49.124;9.152;2023-08-30T12:09:35;1.17;;;1.10;;
12296;SDS011;6211;49.124;9.152;2023-08-30T12:12:06;1.45;;;1.30;;
12296;SDS011;6211;49.124;9.152;2023-08-30T12:14:33;1.35;;;1.08;;
12296;SDS011;6211;49.124;9.152;2023-08-30T12:17:00;1.88;;;1.40;;
12296;SDS011;6211;49.124;9.152;2023-08-30T12:19:28;1.38;;;1.27;;
12296;SDS011;6211;49.124;9.152;2023-08-30T12:22:02;2.30;;;1.30;;
12296;SDS011;6211;49.124;9.152;2023-08-30T12:24:39;1.40;;;1.30;;
12296;SDS011;6211;49.124;9.152;2023-08-30T12:27:06;1.50;;;1.40;;
12296;SDS011;6211;49.124;9.152;2023-08-30T12:29:33;1.52;;;1.42;;
12296;SDS011;6211;49.124;9.152;2023-08-30T12:32:01;1.48;;;1.30;;
12296;SDS011;6211;49.124;9.152;2023-08-30T12:34:28;1.60;;;1.50;;
12296;SDS011;6211;49.124;9.152;2023-08-30T12:36:56;3.90;;;1.40;;
12296;SDS011;6211;49.124;9.152;2023-08-30T12:39:23;1.30;;;1.20;;
12296;SDS011;6211;49.124;9.152;2023-08-30T12:41:50;2.65;;;1.40;;
12296;SDS011;6211;49.124;9.152;2023-08-30T12:44:18;2.00;;;1.40;;
12296;SDS011;6211;49.124;9.152;2023-08-30T12:46:45;2.03;;;1.33;;
12296;SDS011;6211;49.124;9.152;2023-08-30T12:49:12;1.48;;;1.38;;
12296;SDS011;6211;49.124;9.152;2023-08-30T12:51:39;3.13;;;1.38;;
12296;SDS011;6211;49.124;9.152;2023-08-30T12:54:07;1.40;;;1.30;;
12296;SDS011;6211;49.124;9.152;2023-08-30T12:56:35;1.52;;;1.42;;
12296;SDS011;6211;49.124;9.152;2023-08-30T12:59:02;1.40;;;1.30;;
12296;SDS011;6211;49.124;9.152;2023-08-30T13:01:29;1.20;;;1.10;;
12296;SDS011;6211;49.124;9.152;2023-08-30T13:03:56;1.10;;;1.10;;
12296;SDS011;6211;49.124;9.152;2023-08-30T13:06:23;2.45;;;1.10;;
12296;SDS011;6211;49.124;9.152;2023-08-30T13:11:20;1.40;;;1.30;;
12296;SDS011;6211;49.124;9.152;2023-08-30T13:13:47;1.30;;;1.20;;
12296;SDS011;6211;49.124;9.152;2023-08-30T13:16:14;1.67;;;1.30;;
12296;SDS011;6211;49.124;9.152;2023-08-30T13:18:41;1.23;;;1.13;;
12296;SDS011;6211;49.124;9.152;2023-08-30T13:21:08;1.23;;;1.15;;
12296;SDS011;6211;49.124;9.152;2023-08-30T13:23:35;1.40;;;1.20;;
12296;SDS011;6211;49.124;9.152;2023-08-30T13:26:02;1.52;;;1.33;;
12296;SDS011;6211;49.124;9.152;2023-08-30T13:28:31;1.98;;;1.40;;
12296;SDS011;6211;49.124;9.152;2023-08-30T13:30:59;1.58;;;1.20;;
12296;SDS011;6211;49.124;9.152;2023-08-30T13:33:26;1.33;;;1.23;;
12296;SDS011;6211;49.124;9.152;2023-08-30T13:35:53;1.40;;;1.30;;
12296;SDS011;6211;49.124;9.152;2023-08-30T13:38:20;1.42;;;1.10;;
12296;SDS011;6211;49.124;9.152;2023-08-30T13:40:48;1.45;;;1.35;;
12296;SDS011;6211;49.124;9.152;2023-08-30T13:43:15;1.30;;;1.20;;
12296;SDS011;6211;49.124;9.152;2023-08-30T13:45:43;1.00;;;1.00;;
12296;SDS011;6211;49.124;9.152;2023-08-30T13:48:12;1.10;;;1.00;;
12296;SDS011;6211;49.124;9.152;2023-08-30T13:50:40;2.45;;;1.10;;
12296;SDS011;6211;49.124;9.152;2023-08-30T13:53:09;2.10;;;0.93;;
12296;SDS011;6211;49.124;9.152;2023-08-30T13:55:37;1.67;;;0.93;;
12296;SDS011;6211;49.124;9.152;2023-08-30T13:58:06;1.15;;;1.08;;
12296;SDS011;6211;49.124;9.152;2023-08-30T14:00:34;1.10;;;1.10;;
12296;SDS011;6211;49.124;9.152;2023-08-30T14:03:02;1.25;;;1.15;;
12296;SDS011;6211;49.124;9.152;2023-08-30T14:05:30;1.25;;;1.10;;
12296;SDS011;6211;49.124;9.152;2023-08-30T14:07:57;1.42;;;1.05;;
12296;SDS011;6211;49.124;9.152;2023-08-30T14:10:24;1.60;;;1.02;;
12296;SDS011;6211;49.124;9.152;2023-08-30T14:12:51;1.13;;;1.10;;
12296;SDS011;6211;49.124;9.152;2023-08-30T14:15:19;0.98;;;0.98;;
12296;SDS011;6211;49.124;9.152;2023-08-30T14:17:49;1.05;;;1.00;;
12296;SDS011;6211;49.124;9.152;2023-08-30T14:20:17;1.50;;;1.08;;
12296;SDS011;6211;49.124;9.152;2023-08-30T14:22:44;1.42;;;1.33;;
12296;SDS011;6211;49.124;9.152;2023-08-30T14:25:12;1.75;;;1.17;;
12296;SDS011;6211;49.124;9.152;2023-08-30T14:27:39;0.93;;;0.93;;
12296;SDS011;6211;49.124;9.152;2023-08-30T14:30:07;1.63;;;1.10;;
12296;SDS011;6211;49.124;9.152;2023-08-30T14:32:34;1.85;;;0.98;;
12296;SDS011;6211;49.124;9.152;2023-08-30T14:35:02;1.33;;;1.23;;
12296;SDS011;6211;49.124;9.152;2023-08-30T14:37:31;1.48;;;1.10;;
12296;SDS011;6211;49.124;9.152;2023-08-30T14:39:59;1.35;;;1.25;;
12296;SDS011;6211;49.124;9.152;2023-08-30T14:42:26;1.52;;;1.20;;
12296;SDS011;6211;49.124;9.152;2023-08-30T14:44:53;1.92;;;1.27;;
12296;SDS011;6211;49.124;9.152;2023-08-30T14:47:20;1.65;;;1.00;;
12296;SDS011;6211;49.124;9.152;2023-08-30T14:49:47;1.25;;;1.15;;
12296;SDS011;6211;49.124;9.152;2023-08-30T14:52:15;1.60;;;1.50;;
12296;SDS011;6211;49.124;9.152;2023-08-30T14:54:43;1.00;;;1.00;;
12296;SDS011;6211;49.124;9.152;2023-08-30T14:57:10;1.20;;;1.10;;
12296;SDS011;6211;49.124;9.152;2023-08-30T14:59:37;1.30;;;1.20;;